Latest Weather Observations for Cape Naturaliste

IDW60801

Issued at 8:35 am WST Thursday 2 October 2014 (issued every 30 minutes, with the page automatically refreshed every 10 minutes)

About weather observations | Map of weather stations | Latest weather observations for WA | Other Formats
Station Details ID: 009519 Name: CAPE NATURALISTE Lat: -33.54 Lon: 115.02 Height: 109.0 m
Data from the previous 72 hours. | See also: Recent months at Cape Naturaliste
Date/Time
WST
Temp
°C
App
Temp
°C
Dew
Point
Rel
Hum
%
Delta-T
°C
Wind Press
QNH
hPa
Press
MSL
hPa
Rain
since 9 am
mm
Dir
 
Spd
km/h
Gust
km/h
Spd
kts
Gust
kts
02/08:30am 21.8 21.3 13.9 61 4.6 NE 9 13 5 7 1012.8 1012.7 0.0
02/08:00am 21.0 19.9 14.4 66 3.9 NE 13 19 7 10 1012.9 1012.8 0.0
02/07:30am 20.2 17.4 13.2 64 4.0 E 20 26 11 14 1012.8 1012.7 0.0
02/07:00am 19.2 14.3 12.5 65 3.8 E 30 39 16 21 1012.2 1012.1 0.0
02/06:30am 18.8 14.4 12.8 68 3.4 E 28 32 15 17 1012.2 1012.1 0.0
02/06:00am 18.7 14.7 13.1 70 3.2 E 26 30 14 16 1012.0 1011.9 0.0
02/05:30am 18.8 15.2 13.0 69 3.3 E 24 28 13 15 1012.2 1012.1 0.0
02/05:00am 19.2 14.8 12.9 67 3.6 E 28 33 15 18 1012.0 1011.9 0.0
02/04:30am 19.0 14.7 13.2 69 3.3 E 28 39 15 21 1012.1 1012.0 0.0
02/04:00am 19.0 14.0 13.4 70 3.2 E 32 41 17 22 1012.1 1012.0 0.0
02/03:30am 19.0 14.3 13.2 69 3.3 E 30 35 16 19 1012.0 1011.9 0.0
02/03:00am 19.3 14.3 13.5 69 3.3 E 32 35 17 19 1012.1 1012.0 0.0
02/02:30am 19.4 14.4 13.3 68 3.5 E 32 39 17 21 1012.3 1012.2 0.0
02/02:00am 19.8 14.8 13.5 67 3.6 E 32 39 17 21 1012.5 1012.4 0.0
02/01:30am 20.0 15.0 13.5 66 3.7 E 32 41 17 22 1012.8 1012.7 0.0
02/01:00am 21.1 14.6 12.8 59 4.7 ENE 39 48 21 26 1013.0 1012.9 0.0
02/12:30am 21.5 14.1 12.9 58 4.9 ENE 44 56 24 30 1013.4 1013.3 0.0
02/12:00am 22.3 16.7 12.0 52 5.8 ENE 33 48 18 26 1013.6 1013.5 0.0
 
Date/Time
WST
Temp
°C
App
Temp
°C
Dew
Point
Rel
Hum
%
Delta-T
°C
Wind Press
QNH
hPa
Press
MSL
hPa
Rain
since 9 am
mm
Dir
 
Spd
km/h
Gust
km/h
Spd
kts
Gust
kts
01/11:30pm 21.3 16.8 12.7 58 4.9 ENE 28 35 15 19 1014.0 1013.9 0.0
01/11:00pm 20.8 16.8 13.0 61 4.5 E 26 33 14 18 1014.3 1014.2 0.0
01/10:30pm 20.8 16.0 12.8 60 4.6 E 30 37 16 20 1014.7 1014.6 0.0
01/10:00pm 21.3 16.7 12.2 56 5.1 E 28 32 15 17 1015.0 1014.9 0.0
01/09:30pm 21.6 17.3 11.9 54 5.5 ESE 26 33 14 18 1015.4 1015.3 0.0
01/09:00pm 21.3 17.9 12.4 57 5.0 ESE 22 28 12 15 1015.3 1015.2 0.0
01/08:30pm 21.4 18.6 13.3 60 4.7 ESE 20 24 11 13 1015.5 1015.4 0.0
01/08:00pm 21.2 18.7 13.6 62 4.4 ESE 19 22 10 12 1015.4 1015.3 0.0
01/07:30pm 21.5 19.1 13.7 61 4.5 ESE 19 22 10 12 1015.6 1015.5 0.0
01/07:00pm 21.6 19.6 14.0 62 4.4 SE 17 20 9 11 1015.2 1015.1 0.0
01/06:30pm 21.4 19.9 14.1 63 4.3 SE 15 20 8 11 1015.2 1015.1 0.0
01/06:00pm 20.9 20.7 14.8 68 3.6 S 9 13 5 7 1015.1 1015.0 0.0
01/05:30pm 21.0 21.0 15.1 69 3.5 S 9 11 5 6 1015.4 1015.3 0.0
01/05:00pm 20.7 21.1 14.8 69 3.5 SW 6 9 3 5 1015.7 1015.6 0.0
01/04:30pm 21.1 20.6 15.0 68 3.6 SW 11 13 6 7 1015.8 1015.7 0.0
01/04:00pm 23.4 23.0 15.2 60 4.9 SSW 11 15 6 8 1015.7 1015.6 0.0
01/03:30pm 24.9 23.4 13.1 48 6.9 E 13 17 7 9 1015.7 1015.6 0.0
01/03:00pm 24.5 21.8 11.8 45 7.2 E 17 24 9 13 1015.7 1015.6 0.0
01/02:30pm 25.3 22.7 13.2 47 7.1 ESE 19 24 10 13 1016.0 1015.9 0.0
01/02:00pm 24.4 21.0 11.4 44 7.3 ESE 20 26 11 14 1016.5 1016.4 0.0
01/01:30pm 24.4 20.8 11.7 45 7.2 ESE 22 30 12 16 1016.9 1016.8 0.0
01/01:00pm 24.0 20.8 12.0 47 6.8 ESE 20 28 11 15 1017.4 1017.3 0.0
01/12:30pm 23.0 18.8 11.1 47 6.7 ESE 24 32 13 17 1017.9 1017.8 0.0
01/12:00pm 22.5 18.5 11.9 51 6.0 E 24 33 13 18 1018.5 1018.5 0.0
01/11:30am 21.7 17.2 11.4 52 5.7 E 26 35 14 19 1018.8 1018.8 0.0
01/11:00am 20.6 16.2 11.8 57 4.9 E 26 33 14 18 1019.3 1019.2 0.0
01/10:30am 19.9 15.3 12.2 61 4.3 E 28 32 15 17 1019.7 1019.6 0.0
01/10:00am 19.0 14.2 11.6 62 4.1 ESE 28 35 15 19 1019.8 1019.7 0.0
01/09:30am 18.2 13.4 11.7 66 3.6 ESE 28 35 15 19 1020.2 1020.1 0.0
01/09:00am 17.1 11.8 11.4 69 3.1 ESE 30 39 16 21 1020.5 1020.4 0.0
01/08:30am 16.2 10.6 11.4 73 2.6 ESE 32 41 17 22 1020.4 1020.3 0.0
01/08:00am 15.3 9.3 10.9 75 2.3 ESE 33 41 18 22 1020.3 1020.2 0.0
01/07:30am 14.5 8.5 10.9 79 1.9 ESE 33 44 18 24 1020.5 1020.4 0.0
01/07:00am 12.5 7.6 9.9 84 1.3 ESE 26 32 14 17 1021.0 1020.9 0.0
01/06:30am 11.3 5.7 8.9 85 1.2 ESE 28 35 15 19 1021.1 1021.0 0.0
01/06:00am 10.8 4.7 8.4 85 1.2 ESE 30 35 16 19 1020.8 1020.7 0.0
01/05:30am 10.8 4.4 8.4 85 1.2 SE 32 35 17 19 1020.5 1020.4 0.0
01/05:00am 11.0 4.6 8.4 84 1.3 SE 32 35 17 19 1020.5 1020.4 0.0
01/04:30am 11.1 5.0 8.3 83 1.4 SE 30 37 16 20 1020.6 1020.5 0.0
01/04:00am 11.3 5.2 8.3 82 1.5 ESE 30 37 16 20 1020.6 1020.5 0.0
01/03:30am 11.6 5.9 8.3 80 1.6 ESE 28 35 15 19 1020.9 1020.8 0.0
01/03:00am 11.9 7.0 8.4 79 1.7 SE 24 33 13 18 1021.0 1020.9 0.0
01/02:30am 12.5 7.6 8.4 76 2.0 SE 24 32 13 17 1021.2 1021.1 0.0
01/02:00am 13.2 8.8 9.1 76 2.1 SE 22 28 12 15 1021.4 1021.3 0.0
01/01:30am 13.2 8.8 9.1 76 2.1 SE 22 26 12 14 1021.7 1021.6 0.0
01/01:00am 12.9 9.1 9.0 77 2.0 SE 19 24 10 13 1022.0 1021.9 0.0
01/12:30am 12.9 9.1 9.2 78 1.9 SE 19 24 10 13 1022.3 1022.2 0.0
01/12:00am 12.7 8.9 9.2 79 1.8 SE 19 22 10 12 1022.4 1022.3 0.0
 
Date/Time
WST
Temp
°C
App
Temp
°C
Dew
Point
Rel
Hum
%
Delta-T
°C
Wind Press
QNH
hPa
Press
MSL
hPa
Rain
since 9 am
mm
Dir
 
Spd
km/h
Gust
km/h
Spd
kts
Gust
kts
30/11:30pm 12.7 8.9 9.2 79 1.8 SE 19 22 10 12 1022.7 1022.7 0.0
30/11:00pm 12.4 8.6 9.1 80 1.7 SE 19 22 10 12 1022.8 1022.8 0.0
30/10:30pm 12.6 8.6 9.1 79 1.8 SE 20 24 11 13 1022.9 1022.9 0.0
30/10:00pm 12.8 8.8 9.1 78 1.9 SE 20 28 11 15 1023.0 1023.0 0.0
30/09:30pm 13.1 9.4 9.4 78 1.9 SSE 19 26 10 14 1023.2 1023.2 0.0
30/09:00pm 13.2 9.5 9.5 78 1.9 SSE 19 24 10 13 1023.3 1023.3 0.0
30/08:30pm 13.3 9.6 9.5 78 1.9 SSE 19 24 10 13 1023.2 1023.2 0.0
30/08:00pm 13.8 11.3 9.8 77 2.1 SSW 13 15 7 8 1023.1 1023.1 0.0
30/07:30pm 14.4 11.7 10.2 76 2.2 SSW 15 20 8 11 1022.9 1022.9 0.0
30/07:00pm 14.6 11.4 10.0 74 2.4 SSW 17 22 9 12 1022.7 1022.7 0.0
30/06:30pm 14.8 12.0 10.0 73 2.5 SW 15 19 8 10 1022.6 1022.6 0.0
30/06:00pm 15.7 13.0 10.2 70 2.9 SW 15 19 8 10 1022.5 1022.5 0.0
30/05:30pm 16.9 14.8 11.0 68 3.2 SW 13 17 7 9 1022.4 1022.3 0.0
30/05:00pm 17.6 16.3 11.2 66 3.5 SW 9 15 5 8 1022.3 1022.2 0.0
30/04:30pm 17.9 17.0 11.5 66 3.5 W 7 13 4 7 1022.3 1022.2 0.0
30/04:00pm 16.8 15.6 10.2 65 3.5 NNW 7 9 4 5 1022.4 1022.3 0.0
30/03:30pm 17.9 17.0 11.5 66 3.5 N 7 11 4 6 1022.4 1022.3 0.0
30/03:00pm 17.0 15.2 10.8 67 3.3 NE 11 13 6 7 1022.5 1022.5 0.0
30/02:30pm 17.2 15.5 11.2 68 3.3 NE 11 15 6 8 1022.6 1022.6 0.0
30/02:00pm 17.5 14.4 10.4 63 3.8 NE 17 20 9 11 1022.6 1022.6 0.0
30/01:30pm 18.5 15.8 11.8 65 3.7 ENE 17 22 9 12 1022.6 1022.6 0.0
30/01:00pm 17.6 14.6 10.7 64 3.7 ENE 17 20 9 11 1023.1 1023.1 0.0
30/12:30pm 17.8 15.1 10.2 61 4.1 ENE 15 20 8 11 1023.4 1023.4 0.0
30/12:00pm 18.2 16.0 12.0 67 3.4 E 15 17 8 9 1023.5 1023.5 0.0
30/11:30am 17.0 14.7 10.6 66 3.4 ENE 13 19 7 10 1023.7 1023.7 0.0
30/11:00am 16.5 14.2 10.4 67 3.2 E 13 19 7 10 1023.8 1023.8 0.0
30/10:30am 16.3 13.9 10.2 67 3.2 E 13 17 7 9 1023.8 1023.8 0.0
30/10:00am 16.0 13.3 10.3 69 3.0 ENE 15 20 8 11 1023.9 1023.9 0.0
30/09:30am 17.4 15.0 11.4 68 3.3 E 15 20 8 11 1023.8 1023.8 0.0
30/09:00am 16.5 13.5 10.8 69 3.0 E 17 20 9 11 1023.8 1023.8 0.0
30/08:30am 16.7 13.7 10.8 68 3.2 E 17 22 9 12 1023.5 1023.5 0.0
30/08:00am 16.4 13.5 11.1 71 2.8 SE 17 20 9 11 1023.2 1023.2 0.0
30/07:30am 16.0 13.3 11.8 76 2.3 SE 17 20 9 11 1022.9 1022.9 0.0
30/07:00am 14.0 11.5 11.2 83 1.5 SSE 15 20 8 11 1022.7 1022.7 0.0
30/06:30am 11.7 9.1 9.3 85 1.2 SSE 13 17 7 9 1022.4 1022.3 0.0
30/06:00am 11.8 9.2 9.4 85 1.2 SSE 13 15 7 8 1022.2 1022.1 0.0
30/05:30am 12.0 9.5 9.6 85 1.2 SSE 13 17 7 9 1022.0 1021.9 0.0
30/05:00am 11.6 8.9 8.8 83 1.4 SE 13 15 7 8 1021.9 1021.8 0.0
30/04:30am 12.2 9.5 9.0 81 1.6 SE 13 15 7 8 1021.8 1021.7 0.0
30/04:00am 12.7 10.1 9.2 79 1.8 S 13 17 7 9 1021.4 1021.3 0.0
30/03:30am 13.0 9.9 8.7 75 2.2 SSE 15 20 8 11 1021.1 1021.0 0.0
30/03:00am 14.1 10.3 9.1 72 2.5 SSW 19 28 10 15 1020.8 1020.7 0.0
30/02:30am 14.3 10.7 8.3 67 3.0 S 17 22 9 12 1020.8 1020.7 0.0
30/02:00am 14.5 11.0 8.7 68 2.9 SW 17 24 9 13 1020.8 1020.7 0.0
30/01:30am 14.1 10.4 8.1 67 3.0 SSW 17 24 9 13 1020.9 1020.8 0.0
30/01:00am 13.7 10.4 7.9 68 2.9 SW 15 20 8 11 1020.8 1020.7 0.0
30/12:30am 13.9 11.0 8.3 69 2.8 SW 13 20 7 11 1020.9 1020.8 0.0
30/12:00am 13.7 9.4 7.9 68 2.9 WSW 20 28 11 15 1020.9 1020.8 0.0
 
Date/Time
WST
Temp
°C
App
Temp
°C
Dew
Point
Rel
Hum
%
Delta-T
°C
Wind Press
QNH
hPa
Press
MSL
hPa
Rain
since 9 am
mm
Dir
 
Spd
km/h
Gust
km/h
Spd
kts
Gust
kts
29/11:30pm 14.2 9.8 8.8 70 2.7 SW 22 33 12 18 1020.8 1020.7 0.0
29/11:00pm 14.3 10.0 9.3 72 2.6 SSW 22 32 12 17 1020.9 1020.8 0.0
29/10:30pm 14.0 10.3 10.0 77 2.1 SSW 20 33 11 18 1021.0 1020.9 0.0
29/10:00pm 13.9 10.3 9.7 76 2.2 SSW 19 26 10 14 1021.0 1020.9 0.0
29/09:30pm 14.3 10.4 9.5 73 2.5 SW 20 28 11 15 1020.9 1020.8 0.0
29/09:00pm 14.5 10.3 9.7 73 2.5 SSW 22 33 12 18 1020.7 1020.6 0.0
29/08:30pm 14.8 10.9 9.6 71 2.7 SW 20 28 11 15 1020.8 1020.7 0.0
29/08:00pm 14.9 10.1 8.8 67 3.1 SW 24 32 13 17 1020.4 1020.3 0.0
29/07:30pm 15.0 9.3 8.5 65 3.3 WSW 28 39 15 21 1020.2 1020.1 0.0
29/07:00pm 14.9 9.3 8.6 66 3.2 WSW 28 33 15 18 1019.7 1019.6 0.0
29/06:30pm 14.9 9.6 8.6 66 3.2 SW 26 37 14 20 1019.1 1019.0 0.0
29/06:00pm 15.1 9.7 9.5 69 2.9 SW 28 39 15 21 1019.0 1018.9 0.0
29/05:30pm 15.3 10.4 9.9 70 2.8 SW 26 33 14 18 1018.4 1018.4 0.0
29/05:00pm 16.1 11.3 10.2 68 3.1 WSW 26 33 14 18 1018.0 1018.0 0.0
29/04:30pm 18.0 13.2 11.8 67 3.4 WSW 28 39 15 21 1017.8 1017.8 0.0
29/04:00pm 18.0 12.6 10.9 63 3.8 WSW 30 39 16 21 1017.7 1017.7 0.0
29/03:30pm 17.5 12.4 10.6 64 3.7 WSW 28 41 15 22 1017.4 1017.4 0.0
29/03:00pm 17.9 13.3 11.2 65 3.6 WSW 26 33 14 18 1017.2 1017.2 0.0
29/02:30pm 17.5 12.3 10.1 62 3.9 WSW 28 33 15 18 1017.0 1017.0 0.0
29/02:00pm 18.1 14.1 11.9 67 3.4 WSW 24 33 13 18 1017.2 1017.2 0.0
29/01:30pm 16.9 10.9 10.1 64 3.6 WSW 32 41 17 22 1017.3 1017.3 0.0
29/01:00pm 18.2 12.7 11.7 66 3.6 SW 32 41 17 22 1017.2 1017.2 0.0
29/12:30pm 17.3 12.2 10.7 65 3.6 WSW 28 35 15 19 1017.0 1017.0 0.0
29/12:00pm 18.3 13.5 11.6 65 3.7 WSW 28 35 15 19 1016.9 1016.9 0.0
29/11:30am 18.5 13.7 11.6 64 3.8 WSW 28 35 15 19 1016.9 1016.9 0.0
29/11:00am 18.1 13.4 11.9 67 3.4 SW 28 39 15 21 1017.0 1017.0 0.0
29/10:30am 17.7 13.1 12.2 70 3.1 WSW 28 37 15 20 1017.0 1017.0 0.0
29/10:00am 17.5 13.2 12.0 70 3.0 WSW 26 33 14 18 1017.0 1017.0 0.0
29/09:30am 16.9 12.6 12.2 74 2.6 W 26 35 14 19 1016.6 1016.6 0.0
29/09:00am 14.7 9.1 11.5 81 1.7 WSW 32 44 17 24 1016.5 1016.5 2.2

Other Formats:

Comma delimited format used in spreadsheet applications
http://www.bom.gov.au/fwo/IDW60801/IDW60801.94600.axf

JavaScript Object Notation format (JSON) in row-major order
http://www.bom.gov.au/fwo/IDW60801/IDW60801.94600.json